Time;durP1;ratioP1;P1;durP2;ratioP2;P2;SDS_P1;SDS_P2;PMS_P1;PMS_P2;Temp;Humidity;BMP_temperature;BMP_pressure;BME280_temperature;BME280_humidity;BME280_pressure;Samples;Min_cycle;Max_cycle;Signal;HPM_P1;HPM_P2
2022/12/28 00:01:45;;;;;;;13.43;7.20;;;;;;;3.31;88.00;101229.19;5014580;28;20213;-66
2022/12/28 00:04:12;;;;;;;13.63;7.10;;;;;;;3.37;87.99;101226.00;5030445;28;20213;-66
2022/12/28 00:06:39;;;;;;;19.57;7.57;;;;;;;3.41;87.73;101218.41;5039677;28;20191;-66
2022/12/28 00:09:05;;;;;;;19.43;8.40;;;;;;;3.44;87.29;101209.81;5046705;28;20210;-66
2022/12/28 00:11:31;;;;;;;22.50;8.70;;;;;;;3.45;87.56;101207.28;5029261;28;20195;-66
2022/12/28 00:13:59;;;;;;;22.83;8.87;;;;;;;3.44;87.67;101197.63;5016470;28;20249;-66
2022/12/28 00:16:38;;;;;;;21.20;8.90;;;;;;;3.42;87.58;101198.34;5034163;28;20203;-66
2022/12/28 00:19:10;;;;;;;16.03;7.87;;;;;;;3.42;87.70;101208.84;5034867;28;20214;-66
2022/12/28 00:21:36;;;;;;;16.47;7.73;;;;;;;3.42;87.68;101190.50;5036350;28;20227;-66
2022/12/28 00:24:03;;;;;;;17.37;7.70;;;;;;;3.45;87.95;101186.34;5048634;28;20599;-66
2022/12/28 00:26:32;;;;;;;17.23;7.37;;;;;;;3.52;87.86;101181.41;5033532;28;20187;-66
2022/12/28 00:28:59;;;;;;;19.20;7.87;;;;;;;3.54;87.76;101185.91;5029469;28;20638;-66
2022/12/28 00:31:31;;;;;;;15.87;6.60;;;;;;;3.61;86.66;101179.31;5039477;28;20207;-66
2022/12/28 00:33:57;;;;;;;14.20;7.20;;;;;;;3.60;86.93;101174.88;5017902;28;20780;-66
2022/12/28 00:36:24;;;;;;;18.47;8.47;;;;;;;3.62;87.30;101168.94;5041381;28;20262;-66
2022/12/28 00:39:10;;;;;;;21.20;9.30;;;;;;;3.63;87.05;101169.81;5028177;28;20597;-66
2022/12/28 00:41:37;;;;;;;12.57;7.27;;;;;;;3.67;86.12;101154.34;4997663;28;20204;-65
2022/12/28 00:44:03;;;;;;;13.20;6.70;;;;;;;3.65;86.12;101156.00;5035384;28;20277;-66
2022/12/28 00:46:30;;;;;;;11.00;6.07;;;;;;;3.61;85.98;101148.78;5029042;28;20640;-66
2022/12/28 00:48:56;;;;;;;9.80;6.37;;;;;;;3.60;85.74;101148.69;5030109;28;20556;-66
2022/12/28 00:51:22;;;;;;;11.03;6.53;;;;;;;3.63;85.29;101133.16;5034410;28;20195;-66
2022/12/28 00:53:49;;;;;;;13.93;6.73;;;;;;;3.53;85.55;101126.50;5030907;28;20219;-66
2022/12/28 00:56:18;;;;;;;12.27;6.40;;;;;;;3.51;85.73;101129.88;5030574;28;20281;-66
2022/12/28 00:58:45;;;;;;;13.53;7.10;;;;;;;3.58;85.55;101130.28;5030698;28;20199;-66
2022/12/28 01:01:17;;;;;;;10.40;5.90;;;;;;;3.58;85.54;101122.41;5020550;28;20235;-66
2022/12/28 01:03:44;;;;;;;14.40;5.83;;;;;;;3.56;85.74;101120.53;5022076;28;20294;-66
2022/12/28 01:06:12;;;;;;;10.50;5.70;;;;;;;3.54;85.79;101112.59;5031507;28;20223;-66
2022/12/28 01:08:39;;;;;;;11.37;5.47;;;;;;;3.44;86.21;101105.97;5023825;28;20214;-66
2022/12/28 01:11:22;;;;;;;14.03;5.80;;;;;;;3.40;86.60;101108.34;5032767;28;20238;-66
2022/12/28 01:13:50;;;;;;;12.27;6.30;;;;;;;3.36;86.59;101102.06;5036641;28;20695;-66
2022/12/28 01:16:22;;;;;;;11.07;6.20;;;;;;;3.32;87.03;101092.25;5025832;28;20226;-66
2022/12/28 01:18:51;;;;;;;9.67;6.27;;;;;;;3.33;87.37;101093.16;5025428;28;20234;-66
2022/12/28 01:21:21;;;;;;;13.67;6.00;;;;;;;3.35;87.05;101089.78;5014954;28;20226;-66
2022/12/28 01:23:48;;;;;;;11.47;6.73;;;;;;;3.41;87.00;101078.75;5039105;28;20309;-66
2022/12/28 01:26:15;;;;;;;12.47;7.23;;;;;;;3.43;86.68;101088.47;5029084;28;20188;-66
2022/12/28 01:28:41;;;;;;;12.87;7.47;;;;;;;3.40;86.95;101084.78;5029572;28;20234;-66
2022/12/28 01:31:13;;;;;;;14.93;7.67;;;;;;;3.43;87.04;101088.47;5030187;28;20199;-66
2022/12/28 01:33:40;;;;;;;13.87;7.67;;;;;;;3.44;87.32;101084.13;5022744;28;20221;-66
2022/12/28 01:36:10;;;;;;;16.00;7.30;;;;;;;3.44;87.42;101082.41;5027589;28;20223;-66
2022/12/28 01:38:37;;;;;;;15.23;7.53;;;;;;;3.52;86.92;101076.69;5030031;28;20227;-66
2022/12/28 01:41:06;;;;;;;13.60;7.10;;;;;;;3.53;86.46;101071.53;5033720;28;20682;-66
2022/12/28 01:44:06;;;;;;;13.20;7.10;;;;;;;3.48;86.43;101075.63;5026699;28;20239;-66
2022/12/28 01:46:46;;;;;;;11.53;7.23;;;;;;;3.37;87.05;101061.06;5027655;28;20232;-66
2022/12/28 01:49:15;;;;;;;15.50;7.47;;;;;;;3.44;87.47;101078.91;5027187;28;20222;-66
2022/12/28 01:52:08;;;;;;;16.87;7.80;;;;;;;3.50;87.48;101089.69;5025152;28;20203;-66
2022/12/28 01:54:44;;;;;;;18.53;8.20;;;;;;;3.53;87.69;101070.63;5012689;28;20196;-66
2022/12/28 01:57:11;;;;;;;18.23;8.43;;;;;;;3.56;87.80;101060.31;5038446;28;20214;-66
2022/12/28 01:59:41;;;;;;;16.63;7.40;;;;;;;3.55;87.59;101063.75;5025678;28;20258;-66
2022/12/28 02:02:10;;;;;;;15.23;7.53;;;;;;;3.58;87.33;101059.56;5010836;28;20222;-66
2022/12/28 02:04:37;;;;;;;14.50;7.97;;;;;;;3.60;87.29;101078.91;5030286;28;20203;-66
2022/12/28 02:07:03;;;;;;;21.00;9.10;;;;;;;3.58;87.39;101067.41;5040945;28;20659;-66
2022/12/28 02:09:38;;;;;;;16.77;8.37;;;;;;;3.65;87.81;101071.28;5028638;28;20196;-66
2022/12/28 02:12:07;;;;;;;14.67;8.13;;;;;;;3.69;87.45;101068.00;5029054;28;20631;-66
2022/12/28 02:14:33;;;;;;;10.63;7.23;;;;;;;3.74;86.50;101058.66;5028845;28;20218;-66
2022/12/28 02:17:00;;;;;;;13.37;7.00;;;;;;;3.67;86.57;101052.22;5038381;28;20729;-66
2022/12/28 02:19:44;;;;;;;16.77;7.37;;;;;;;3.75;85.78;101045.63;5008426;28;20380;-66
2022/12/28 02:22:41;;;;;;;11.73;7.23;;;;;;;3.75;85.89;101047.34;5025393;28;20246;-66
2022/12/28 02:25:13;;;;;;;10.67;6.97;;;;;;;3.72;86.11;101049.81;5028794;28;20195;-66
2022/12/28 02:27:48;;;;;;;10.00;6.83;;;;;;;3.76;86.32;101050.06;5028976;28;20251;-66
2022/12/28 02:30:16;;;;;;;15.43;7.40;;;;;;;3.74;86.60;101042.94;5010965;28;20195;-66
2022/12/28 02:33:04;;;;;;;12.53;7.33;;;;;;;3.70;86.62;101025.28;5035687;28;20245;-66
2022/12/28 02:35:49;;;;;;;13.03;7.10;;;;;;;3.73;86.74;101023.69;5033935;28;20290;-66
2022/12/28 02:38:40;;;;;;;14.33;7.70;;;;;;;3.69;86.84;101016.50;5023897;28;20249;-65
2022/12/28 02:41:11;;;;;;;12.37;6.73;;;;;;;3.72;86.83;101005.28;5011261;28;20253;-66
2022/12/28 02:43:38;;;;;;;13.80;7.33;;;;;;;3.66;87.07;100995.41;5030607;28;20638;-66
2022/12/28 02:52:20;;;;;;;12.07;6.83;;;;;;;3.72;87.58;100980.00;5020923;28;20199;-66
2022/12/28 02:58:21;;;;;;;11.90;7.13;;;;;;;3.69;87.79;100971.09;5031981;28;20222;-66
2022/12/28 03:01:01;;;;;;;14.63;8.13;;;;;;;3.68;87.93;100983.28;5028541;28;20222;-66
2022/12/28 03:03:41;;;;;;;15.63;8.53;;;;;;;3.68;87.97;100993.75;5054966;22;20763;-71
2022/12/28 03:09:19;;;;;;;13.63;7.63;;;;;;;3.80;87.41;100980.38;5015497;28;20238;-71
2022/12/28 03:11:59;;;;;;;14.50;8.10;;;;;;;3.78;86.71;100971.53;5047675;28;20464;-71
2022/12/28 03:14:33;;;;;;;12.03;8.30;;;;;;;3.77;87.05;100965.41;5047893;28;20214;-71
2022/12/28 03:31:12;;;;;;;13.13;8.07;;;;;;;3.65;87.31;100920.28;5049189;28;20256;-71
2022/12/28 03:33:44;;;;;;;13.40;7.90;;;;;;;3.65;87.58;100919.38;5047980;28;20251;-70
2022/12/28 03:36:26;;;;;;;15.30;8.83;;;;;;;3.70;87.33;100915.25;5043912;28;20221;-70
2022/12/28 03:39:14;;;;;;;14.07;8.33;;;;;;;3.73;87.77;100918.94;5028122;28;20233;-71
2022/12/28 03:41:46;;;;;;;18.27;9.10;;;;;;;3.76;87.23;100907.69;5048977;28;20277;-70
2022/12/28 03:44:26;;;;;;;16.10;9.17;;;;;;;3.70;87.35;100899.53;5042771;28;20214;-71
2022/12/28 03:47:05;;;;;;;16.47;8.70;;;;;;;3.73;87.42;100910.19;5048837;28;20667;-71
2022/12/28 03:49:31;;;;;;;15.63;8.83;;;;;;;3.70;87.35;100899.53;5038102;28;20198;-71
2022/12/28 03:52:00;;;;;;;14.57;8.83;;;;;;;3.73;87.23;100900.59;5047604;28;20202;-71
2022/12/28 03:54:26;;;;;;;12.57;8.30;;;;;;;3.74;87.53;100901.50;5046651;28;20257;-70
2022/12/28 03:56:53;;;;;;;14.90;8.80;;;;;;;3.71;87.17;100889.16;5046999;28;20340;-71
2022/12/28 03:59:19;;;;;;;14.03;8.73;;;;;;;3.79;86.88;100892.13;5047309;28;20567;-71
2022/12/28 04:01:45;;;;;;;15.07;9.23;;;;;;;3.76;86.93;100890.25;5046732;28;20194;-71
2022/12/28 04:04:12;;;;;;;15.97;9.20;;;;;;;3.71;87.23;100877.78;5047067;28;20250;-71
2022/12/28 04:06:38;;;;;;;16.33;9.37;;;;;;;3.72;87.20;100877.84;5047700;28;20191;-70
2022/12/28 04:09:05;;;;;;;12.40;8.57;;;;;;;3.66;87.86;100861.84;5047266;28;20203;-71
2022/12/28 04:11:32;;;;;;;15.37;9.07;;;;;;;3.73;87.69;100866.53;5047025;28;20206;-71
2022/12/28 04:13:58;;;;;;;17.80;10.10;;;;;;;3.76;87.28;100869.31;5045726;28;20218;-71
2022/12/28 04:16:24;;;;;;;15.50;9.57;;;;;;;3.78;87.25;100870.28;5048857;28;20211;-70
2022/12/28 04:18:51;;;;;;;16.43;9.70;;;;;;;3.80;86.85;100880.84;5046591;28;20198;-71
2022/12/28 04:21:17;;;;;;;16.60;9.30;;;;;;;3.79;87.22;100876.41;5043692;28;20196;-71
2022/12/28 04:23:43;;;;;;;15.47;10.00;;;;;;;3.84;86.92;100866.16;5045804;28;20219;-69
2022/12/28 04:26:12;;;;;;;15.43;9.17;;;;;;;3.68;87.04;100849.72;5047648;28;20539;-71
2022/12/28 04:28:39;;;;;;;14.03;9.33;;;;;;;3.83;86.99;100875.72;5047178;28;20195;-71
2022/12/28 04:31:07;;;;;;;18.77;9.67;;;;;;;3.74;86.63;100868.34;5042037;28;20222;-71
2022/12/28 04:33:35;;;;;;;14.33;9.07;;;;;;;3.74;87.05;100863.09;5029909;28;20706;-71
2022/12/28 04:36:14;;;;;;;16.17;9.40;;;;;;;3.82;87.19;100873.03;5041368;28;20583;-71
2022/12/28 04:38:41;;;;;;;14.27;8.63;;;;;;;3.85;86.83;100852.22;5042538;28;20254;-71
2022/12/28 04:41:08;;;;;;;19.53;9.60;;;;;;;3.76;86.67;100845.72;5046585;28;20203;-71
2022/12/28 04:43:35;;;;;;;14.70;9.40;;;;;;;3.87;86.62;100856.72;5051838;28;20360;-71
2022/12/28 04:46:05;;;;;;;14.10;9.13;;;;;;;3.78;87.08;100848.44;5048093;28;20657;-71
2022/12/28 04:48:31;;;;;;;16.73;8.77;;;;;;;3.75;87.32;100856.13;5048389;28;20199;-71
2022/12/28 04:51:04;;;;;;;14.67;8.90;;;;;;;3.69;87.67;100859.38;5049183;28;20249;-71
2022/12/28 04:53:30;;;;;;;14.43;9.00;;;;;;;3.72;87.04;100849.03;5049282;28;20288;-71
2022/12/28 04:56:02;;;;;;;15.70;8.77;;;;;;;3.75;87.12;100849.19;5048096;28;20198;-71
2022/12/28 04:58:28;;;;;;;13.57;8.97;;;;;;;3.75;87.42;100851.81;5051070;28;20194;-70
2022/12/28 05:01:02;;;;;;;16.57;9.47;;;;;;;3.65;87.67;100835.56;5050694;28;20191;-71
2022/12/28 05:03:28;;;;;;;15.90;8.70;;;;;;;3.69;87.48;100838.41;5050141;28;20253;-69
2022/12/28 05:05:59;;;;;;;15.17;8.73;;;;;;;3.62;87.66;100820.63;5043996;28;20634;-71
2022/12/28 05:08:25;;;;;;;14.03;9.43;;;;;;;3.63;87.81;100811.03;5049783;28;20758;-71
2022/12/28 05:10:52;;;;;;;13.40;8.67;;;;;;;3.78;87.26;100823.13;5050541;28;20230;-71
2022/12/28 05:13:18;;;;;;;15.37;8.80;;;;;;;3.76;87.40;100816.91;5047415;28;20246;-71
2022/12/28 05:15:44;;;;;;;13.03;8.40;;;;;;;3.72;87.14;100811.47;5056871;28;20219;-71
2022/12/28 05:18:11;;;;;;;16.20;9.27;;;;;;;3.85;87.26;100820.78;5056840;28;20242;-71
2022/12/28 05:20:37;;;;;;;16.37;9.20;;;;;;;3.76;87.05;100824.78;5050387;28;20241;-70
2022/12/28 05:23:03;;;;;;;15.87;9.30;;;;;;;3.74;87.59;100815.94;5047024;28;20222;-71
2022/12/28 05:25:30;;;;;;;16.63;8.37;;;;;;;3.76;87.88;100814.31;5050502;28;20191;-70
2022/12/28 05:27:56;;;;;;;15.47;8.87;;;;;;;3.76;87.70;100811.69;5051601;28;20229;-71
2022/12/28 05:30:23;;;;;;;14.57;8.97;;;;;;;3.78;87.63;100814.38;5045047;28;20196;-71
2022/12/28 05:32:49;;;;;;;14.07;8.50;;;;;;;3.78;87.48;100822.22;5045605;28;20779;-71
2022/12/28 05:35:15;;;;;;;13.80;8.57;;;;;;;3.85;87.77;100819.06;5051137;28;20191;-71
2022/12/28 05:37:41;;;;;;;12.77;7.93;;;;;;;3.77;88.05;100813.47;5049328;28;20222;-71
2022/12/28 05:40:08;;;;;;;12.93;8.13;;;;;;;3.78;88.00;100809.13;5047276;28;20210;-71
2022/12/28 05:42:35;;;;;;;14.00;8.20;;;;;;;3.84;88.12;100808.53;5049224;28;20557;-71
2022/12/28 05:45:01;;;;;;;14.37;7.90;;;;;;;3.92;87.45;100800.19;5051299;28;20681;-71
2022/12/28 05:47:28;;;;;;;12.10;8.20;;;;;;;3.83;87.56;100791.00;5045290;28;20196;-71
2022/12/28 05:49:54;;;;;;;14.83;7.50;;;;;;;3.92;87.63;100778.31;5049710;28;20195;-71
2022/12/28 05:52:20;;;;;;;15.83;7.60;;;;;;;3.91;87.82;100766.06;5048658;28;20245;-71
2022/12/28 05:54:47;;;;;;;13.50;7.50;;;;;;;4.01;87.92;100779.66;5049300;28;20567;-71
2022/12/28 05:57:13;;;;;;;14.70;7.47;;;;;;;4.19;87.18;100778.69;5048712;28;20631;-71
2022/12/28 05:59:39;;;;;;;13.87;7.53;;;;;;;4.16;87.26;100765.47;5036697;28;20252;-71
2022/12/28 06:02:05;;;;;;;13.40;7.50;;;;;;;4.09;87.29;100773.03;5049224;28;20576;-71
2022/12/28 06:04:32;;;;;;;14.47;8.17;;;;;;;4.14;87.89;100770.63;5049866;28;20218;-69
2022/12/28 06:06:58;;;;;;;12.97;7.07;;;;;;;4.11;88.27;100770.50;5041304;28;20198;-71
2022/12/28 06:09:26;;;;;;;13.30;7.37;;;;;;;3.98;88.27;100745.44;5049777;28;20663;-70
2022/12/28 06:11:52;;;;;;;11.03;7.33;;;;;;;4.11;88.76;100754.78;5049489;28;20195;-71
2022/12/28 06:14:19;;;;;;;13.33;7.30;;;;;;;4.07;88.78;100752.84;5049917;28;20227;-71
2022/12/28 06:16:45;;;;;;;11.63;7.37;;;;;;;4.09;89.07;100738.09;5043100;28;20218;-71
2022/12/28 06:19:14;;;;;;;13.27;7.53;;;;;;;4.19;88.80;100748.13;5030870;28;20200;-71
2022/12/28 06:21:41;;;;;;;12.47;6.73;;;;;;;4.21;88.89;100742.97;5048833;28;20196;-71
2022/12/28 06:24:08;;;;;;;14.33;7.50;;;;;;;4.25;88.02;100739.66;5052099;28;20226;-71
2022/12/28 06:26:36;;;;;;;14.33;7.67;;;;;;;4.36;87.90;100727.91;5048292;28;20191;-71
2022/12/28 06:29:03;;;;;;;11.10;7.20;;;;;;;4.46;86.99;100735.34;5043857;28;20217;-71
2022/12/28 06:31:35;;;;;;;14.33;7.20;;;;;;;4.46;87.01;100744.94;5044738;28;20286;-71
2022/12/28 06:34:04;;;;;;;12.30;7.40;;;;;;;4.52;86.70;100746.09;5046749;28;20309;-71
2022/12/28 06:36:36;;;;;;;11.57;7.20;;;;;;;4.48;86.28;100732.78;5034777;28;20229;-71
2022/12/28 06:39:06;;;;;;;11.93;7.10;;;;;;;4.40;87.26;100749.09;5043416;28;20194;-71
2022/12/28 06:41:32;;;;;;;13.87;6.63;;;;;;;4.38;88.22;100736.72;5045978;28;20219;-71
2022/12/28 06:43:59;;;;;;;12.00;6.70;;;;;;;4.52;87.75;100735.63;5048301;28;20222;-71
2022/12/28 06:46:27;;;;;;;11.70;7.20;;;;;;;4.51;88.08;100732.94;5045562;28;20194;-70
2022/12/28 06:48:55;;;;;;;11.60;7.20;;;;;;;4.47;87.81;100737.16;5039228;28;20202;-70
2022/12/28 06:51:40;;;;;;;12.77;7.20;;;;;;;4.43;88.63;100729.09;5046113;28;20198;-70
2022/12/28 06:54:08;;;;;;;10.30;6.37;;;;;;;4.44;88.88;100728.25;5045246;28;20238;-71
2022/12/28 06:56:36;;;;;;;10.53;6.87;;;;;;;4.54;88.79;100725.19;5047899;28;20252;-71
2022/12/28 06:59:02;;;;;;;10.53;6.60;;;;;;;4.49;88.70;100716.22;5046070;28;20217;-71
2022/12/28 07:01:35;;;;;;;13.47;7.50;;;;;;;4.62;87.92;100710.66;5045959;28;20191;-70
2022/12/28 07:04:04;;;;;;;12.10;7.17;;;;;;;4.63;87.09;100704.59;5025851;28;20269;-71
2022/12/28 07:06:35;;;;;;;11.07;6.67;;;;;;;4.54;87.24;100704.22;5047740;28;20250;-71
2022/12/28 07:09:05;;;;;;;10.93;7.27;;;;;;;4.49;87.75;100700.50;5048398;28;20197;-71
2022/12/28 07:11:32;;;;;;;15.00;7.40;;;;;;;4.45;87.94;100704.72;5046294;28;20493;-71
2022/12/28 07:13:58;;;;;;;13.23;7.57;;;;;;;4.44;87.83;100705.56;5042524;28;20218;-71
2022/12/28 07:16:27;;;;;;;10.90;7.47;;;;;;;4.70;87.34;100710.16;5048495;28;20248;-71
2022/12/28 07:18:53;;;;;;;10.90;7.07;;;;;;;4.65;87.18;100711.69;5046981;28;20218;-71
2022/12/28 07:21:25;;;;;;;15.53;8.57;;;;;;;4.65;87.13;100705.53;5043229;28;20199;-71
2022/12/28 07:23:53;;;;;;;14.87;8.27;;;;;;;4.63;87.10;100697.63;5046740;28;20222;-71
2022/12/28 07:26:24;;;;;;;13.53;7.67;;;;;;;4.62;87.11;100700.16;5046757;28;20199;-71
2022/12/28 07:28:52;;;;;;;14.93;7.80;;;;;;;4.59;87.34;100689.56;5046481;28;20230;-68
2022/12/28 07:31:21;;;;;;;15.90;7.93;;;;;;;4.56;87.68;100694.69;5046456;28;20203;-70
2022/12/28 07:33:49;;;;;;;12.03;8.07;;;;;;;4.63;87.53;100684.50;5043417;28;20219;-71
2022/12/28 07:36:17;;;;;;;13.50;7.87;;;;;;;4.59;87.46;100689.56;5049099;28;20705;-71
2022/12/28 07:38:44;;;;;;;11.63;7.67;;;;;;;4.53;87.71;100686.69;5046229;28;20216;-71
2022/12/28 07:41:16;;;;;;;17.63;8.57;;;;;;;4.63;88.09;100686.22;5046161;28;20252;-71
2022/12/28 07:43:43;;;;;;;12.73;8.17;;;;;;;4.71;87.31;100696.19;5044740;28;20279;-71
2022/12/28 07:46:12;;;;;;;12.63;8.13;;;;;;;4.69;87.83;100681.22;5031663;28;20195;-71
2022/12/28 07:48:40;;;;;;;12.37;8.17;;;;;;;4.80;87.27;100684.28;5042227;28;20314;-71
2022/12/28 07:51:09;;;;;;;16.33;8.37;;;;;;;4.83;86.94;100693.22;5041051;28;20191;-71
2022/12/28 07:53:37;;;;;;;13.40;8.43;;;;;;;4.78;86.98;100686.84;5029090;28;20211;-70
2022/12/28 07:56:04;;;;;;;16.40;8.60;;;;;;;4.86;87.16;100682.84;5029582;28;20248;-71
2022/12/28 07:58:31;;;;;;;13.67;8.30;;;;;;;4.83;86.76;100681.81;5046894;28;20218;-71
2022/12/28 08:01:10;;;;;;;14.40;8.27;;;;;;;4.83;86.79;100682.72;5043091;28;20207;-71
2022/12/28 08:03:39;;;;;;;13.33;8.30;;;;;;;4.75;87.17;100691.06;5047054;28;20219;-69
2022/12/28 08:06:21;;;;;;;15.50;8.23;;;;;;;4.67;87.31;100688.16;5044889;28;20191;-71
2022/12/28 08:08:49;;;;;;;13.37;7.97;;;;;;;4.66;87.44;100683.72;5043499;28;20693;-71
2022/12/28 08:11:18;;;;;;;15.00;8.67;;;;;;;4.86;87.23;100695.06;5045560;28;20195;-71
2022/12/28 08:13:46;;;;;;;15.77;9.00;;;;;;;4.84;86.85;100689.75;5045441;28;20220;-71
2022/12/28 08:16:14;;;;;;;13.40;8.80;;;;;;;4.87;86.85;100684.63;5047167;28;20689;-71
2022/12/28 08:18:41;;;;;;;14.93;8.33;;;;;;;4.95;87.10;100682.31;5043824;28;20638;-71
2022/12/28 08:21:21;;;;;;;15.00;8.50;;;;;;;4.93;87.31;100679.63;5048804;28;20222;-71
2022/12/28 08:23:47;;;;;;;16.23;8.70;;;;;;;4.97;87.54;100678.91;5049207;28;20223;-71
2022/12/28 08:26:23;;;;;;;14.80;8.47;;;;;;;5.03;87.94;100680.88;5032351;28;20224;-71
2022/12/28 08:28:52;;;;;;;18.33;9.03;;;;;;;5.19;87.76;100685.00;5047352;28;20210;-71
2022/12/28 08:31:22;;;;;;;17.10;8.87;;;;;;;5.19;86.96;100666.63;5050778;28;20685;-69
2022/12/28 08:33:49;;;;;;;13.00;8.60;;;;;;;5.24;87.25;100671.25;5047701;28;20601;-70
2022/12/28 08:36:15;;;;;;;16.53;8.90;;;;;;;5.28;87.49;100667.91;5026913;28;20670;-71
2022/12/28 08:38:43;;;;;;;12.33;8.10;;;;;;;5.43;87.51;100664.97;5048007;28;20228;-71
2022/12/28 08:41:12;;;;;;;16.00;8.33;;;;;;;5.59;86.86;100667.31;5048510;28;20200;-71
2022/12/28 08:43:39;;;;;;;12.10;7.60;;;;;;;5.60;86.84;100658.63;5047727;28;20243;-71
2022/12/28 08:46:09;;;;;;;12.37;6.80;;;;;;;5.78;86.35;100658.41;5048856;28;20288;-71
2022/12/28 08:48:36;;;;;;;12.33;8.17;;;;;;;5.90;86.07;100653.63;5046933;28;20216;-68
2022/12/28 08:51:08;;;;;;;11.13;7.33;;;;;;;5.98;86.27;100646.00;5047536;28;20204;-71
2022/12/28 08:53:35;;;;;;;9.23;6.47;;;;;;;6.09;86.15;100639.41;5045143;28;20221;-71
2022/12/28 08:56:03;;;;;;;11.80;6.80;;;;;;;6.21;85.81;100642.47;5050060;28;20191;-71
2022/12/28 08:58:32;;;;;;;11.73;7.27;;;;;;;6.33;85.81;100644.63;5047952;28;20213;-71
2022/12/28 09:01:08;;;;;;;21.13;8.67;;;;;;;6.40;84.38;100637.81;5048902;28;20652;-71
2022/12/28 09:03:40;;;;;;;10.43;5.93;;;;;;;6.60;83.97;100649.94;5086018;22;20298;-66
2022/12/28 09:06:10;;;;;;;11.17;6.87;;;;;;;6.61;83.75;100643.81;5045604;28;20276;-66
2022/12/28 09:08:37;;;;;;;11.60;6.13;;;;;;;6.82;82.94;100643.66;5048490;28;20807;-66
2022/12/28 09:11:07;;;;;;;12.10;6.00;;;;;;;6.74;83.65;100648.63;5028692;28;20201;-66
2022/12/28 09:13:33;;;;;;;10.57;5.63;;;;;;;6.82;84.06;100651.53;5051038;28;20271;-66
2022/12/28 09:16:03;;;;;;;8.87;5.07;;;;;;;6.85;83.41;100641.13;5031500;28;20199;-66
2022/12/28 09:18:29;;;;;;;8.30;5.10;;;;;;;6.86;83.45;100650.78;5051440;28;20234;-66
2022/12/28 09:20:55;;;;;;;8.87;5.00;;;;;;;6.96;82.72;100649.34;5049491;28;20202;-66
2022/12/28 09:23:22;;;;;;;8.43;4.57;;;;;;;7.02;82.76;100655.69;5049186;28;20226;-66
2022/12/28 09:25:48;;;;;;;10.47;5.10;;;;;;;7.09;82.45;100654.16;5046174;28;20206;-66
2022/12/28 09:28:14;;;;;;;12.20;5.77;;;;;;;7.10;82.66;100664.72;5048616;28;20241;-67
2022/12/28 09:30:41;;;;;;;10.43;6.17;;;;;;;7.05;82.73;100660.16;5051414;28;20203;-66
2022/12/28 09:35:56;;;;;;;12.20;5.30;;;;;;;7.40;82.15;100651.63;5044789;28;20231;-66
2022/12/28 09:38:23;;;;;;;8.00;4.80;;;;;;;7.59;82.18;100644.25;5046985;28;20698;-66
2022/12/28 09:40:49;;;;;;;7.33;4.00;;;;;;;7.90;81.24;100656.56;5045517;28;20230;-66
2022/12/28 09:43:16;;;;;;;7.83;3.40;;;;;;;8.08;80.52;100650.09;5050063;28;20634;-66
2022/12/28 09:45:44;;;;;;;7.83;3.07;;;;;;;8.35;79.24;100651.69;5049949;28;20211;-66
2022/12/28 09:48:17;;;;;;;5.33;2.70;;;;;;;8.60;78.30;100653.25;5040850;28;20237;-67
2022/12/28 09:50:45;;;;;;;6.03;3.40;;;;;;;8.71;77.71;100649.09;5046300;28;20202;-66
2022/12/28 09:53:28;;;;;;;6.80;2.40;;;;;;;8.75;77.20;100643.94;5042280;28;20221;-66
2022/12/28 09:55:59;;;;;;;3.27;2.20;;;;;;;8.88;77.27;100637.22;5029925;28;20206;-66
2022/12/28 09:58:28;;;;;;;4.00;2.30;;;;;;;8.92;76.36;100630.28;5031890;28;20218;-66
2022/12/28 10:00:57;;;;;;;5.83;2.97;;;;;;;8.98;75.96;100627.78;5049465;28;20716;-66
2022/12/28 10:03:31;;;;;;;9.53;2.37;;;;;;;9.16;75.45;100645.78;5047583;28;20231;-66
2022/12/28 10:05:58;;;;;;;3.60;2.10;;;;;;;9.34;75.04;100643.56;5049406;28;20199;-66
2022/12/28 10:08:28;;;;;;;5.57;2.53;;;;;;;9.44;74.50;100634.97;5047067;28;20719;-65
2022/12/28 10:10:59;;;;;;;6.60;2.70;;;;;;;9.46;74.14;100629.72;5048804;28;20209;-66
2022/12/28 10:13:32;;;;;;;3.37;2.23;;;;;;;9.52;73.92;100622.81;5047845;28;20251;-66
2022/12/28 10:16:20;;;;;;;4.07;2.13;;;;;;;9.50;73.81;100621.91;5045573;28;20208;-66
2022/12/28 10:18:47;;;;;;;3.77;2.07;;;;;;;9.41;73.84;100621.69;5041687;28;20897;-66
2022/12/28 10:21:18;;;;;;;3.13;2.00;;;;;;;9.30;73.84;100618.84;5043540;28;20203;-69
2022/12/28 10:23:48;;;;;;;4.20;2.13;;;;;;;9.18;74.45;100593.88;5021880;28;20274;-69
2022/12/28 10:26:35;;;;;;;5.50;2.47;;;;;;;9.20;74.69;100626.50;5045788;28;20278;-69
2022/12/28 10:29:01;;;;;;;6.80;2.33;;;;;;;9.17;74.53;100605.28;5048902;28;20215;-69
2022/12/28 10:31:37;;;;;;;3.10;1.87;;;;;;;9.25;73.93;100609.91;5061935;28;20229;-69
2022/12/28 10:34:15;;;;;;;3.20;1.87;;;;;;;9.31;74.47;100620.63;5027347;28;20315;-69
2022/12/28 10:36:43;;;;;;;3.97;2.50;;;;;;;9.46;74.17;100609.47;5042827;28;20205;-69
2022/12/28 10:39:21;;;;;;;2.80;2.07;;;;;;;9.47;73.72;100589.22;5042621;28;20272;-69
2022/12/28 10:41:48;;;;;;;4.03;2.20;;;;;;;9.45;73.43;100596.22;5046716;28;20206;-70
2022/12/28 10:44:31;;;;;;;4.03;2.27;;;;;;;9.58;73.21;100616.75;5029616;28;20331;-69
2022/12/28 10:47:21;;;;;;;5.90;2.10;;;;;;;9.65;72.63;100610.78;5047145;28;20258;-70
2022/12/28 10:49:50;;;;;;;4.40;2.10;;;;;;;9.60;72.75;100609.75;5043143;28;20218;-69
2022/12/28 10:52:36;;;;;;;3.67;2.10;;;;;;;9.76;72.37;100596.00;5041982;28;20281;-69
2022/12/28 10:55:27;;;;;;;3.27;2.10;;;;;;;9.97;71.99;100603.44;5047016;28;20270;-69
2022/12/28 10:57:53;;;;;;;6.27;2.33;;;;;;;10.09;71.77;100595.75;5034780;28;20221;-69
2022/12/28 11:00:40;;;;;;;5.80;1.90;;;;;;;10.12;71.00;100587.88;5042633;28;20292;-68
2022/12/28 11:03:18;;;;;;;5.83;2.10;;;;;;;10.16;70.91;100580.88;5046742;28;20222;-66
2022/12/28 11:05:45;;;;;;;6.13;2.60;;;;;;;10.14;70.60;100580.84;5044856;28;20200;-66
2022/12/28 11:08:22;;;;;;;3.30;2.07;;;;;;;10.04;70.61;100582.44;5044332;28;20577;-66
2022/12/28 11:10:56;;;;;;;3.30;2.00;;;;;;;10.04;70.84;100582.44;5045971;28;20826;-66
2022/12/28 11:13:22;;;;;;;2.97;1.93;;;;;;;10.00;71.38;100577.94;5044150;28;20217;-66
2022/12/28 11:15:49;;;;;;;3.93;2.30;;;;;;;10.01;70.86;100571.81;5046803;28;20223;-66
2022/12/28 11:18:17;;;;;;;2.80;2.10;;;;;;;10.15;71.19;100572.06;5047892;28;20218;-66
2022/12/28 11:20:46;;;;;;;3.70;2.17;;;;;;;10.17;70.69;100562.38;5043901;28;20223;-66
2022/12/28 11:23:23;;;;;;;3.80;2.10;;;;;;;10.43;70.47;100551.41;5027656;28;20217;-67
2022/12/28 11:25:50;;;;;;;3.40;2.10;;;;;;;10.56;69.43;100543.66;5030566;28;20233;-67
2022/12/28 11:28:21;;;;;;;3.00;1.70;;;;;;;10.86;68.62;100537.06;5046588;28;20194;-66
2022/12/28 11:30:49;;;;;;;5.23;2.70;;;;;;;11.00;67.42;100535.50;5050245;28;20203;-66
2022/12/28 11:33:42;;;;;;;6.13;2.20;;;;;;;10.92;67.82;100526.53;5044519;28;20224;-66
2022/12/28 11:36:21;;;;;;;4.40;2.17;;;;;;;10.74;68.18;100515.66;5027053;28;20227;-66
2022/12/28 11:38:51;;;;;;;5.07;2.73;;;;;;;10.64;68.45;100523.47;5044944;28;20224;-66
2022/12/28 11:41:23;;;;;;;4.07;2.27;;;;;;;10.58;69.07;100526.03;5044851;28;20203;-66
2022/12/28 11:44:01;;;;;;;4.13;2.10;;;;;;;10.44;69.17;100516.13;5039626;28;20216;-66
2022/12/28 11:46:34;;;;;;;4.43;2.10;;;;;;;10.25;69.76;100513.16;5048903;28;20226;-66
2022/12/28 11:49:19;;;;;;;4.20;2.10;;;;;;;10.30;70.11;100518.50;5050015;28;20194;-66
2022/12/28 11:51:45;;;;;;;3.13;2.00;;;;;;;10.28;70.14;100512.31;5059545;28;20261;-66
2022/12/28 11:54:35;;;;;;;4.17;2.23;;;;;;;10.39;70.03;100518.66;5055455;28;20230;-67
2022/12/28 11:57:02;;;;;;;4.27;2.20;;;;;;;10.40;69.55;100511.59;5055991;28;20307;-66
2022/12/28 11:59:32;;;;;;;3.60;2.17;;;;;;;10.25;70.21;100499.03;5047443;28;20214;-66
2022/12/28 12:02:01;;;;;;;3.37;2.00;;;;;;;10.22;70.32;100488.38;5045417;28;20194;-65
2022/12/28 12:04:30;;;;;;;4.93;2.40;;;;;;;10.05;70.34;100496.91;5053472;28;20307;-65
2022/12/28 12:07:00;;;;;;;5.07;1.97;;;;;;;9.97;71.01;100487.94;5052632;28;20208;-65
2022/12/28 12:09:31;;;;;;;4.17;1.97;;;;;;;9.85;71.56;100489.47;5029490;28;20201;-65
2022/12/28 12:12:00;;;;;;;2.60;1.93;;;;;;;9.75;71.91;100493.72;5048302;28;20283;-65